createdAt,value
2022-08-30T00:00:45.340Z,36.90
2022-08-30T00:01:45.324Z,38.19
2022-08-30T00:02:45.571Z,40.12
2022-08-30T00:03:45.438Z,38.67
2022-08-30T00:04:45.300Z,41.25
2022-08-30T00:05:45.291Z,35.61
2022-08-30T00:06:45.284Z,37.22
2022-08-30T00:07:45.308Z,35.45
2022-08-30T00:08:45.260Z,34.48
2022-08-30T00:09:46.260Z,35.61
2022-08-30T00:10:45.270Z,34.00
2022-08-30T00:11:45.240Z,34.16
2022-08-30T00:12:45.255Z,38.19
2022-08-30T00:13:45.223Z,40.77
2022-08-30T00:14:45.215Z,38.35
2022-08-30T00:15:45.271Z,39.16
2022-08-30T00:16:45.200Z,34.32
2022-08-30T00:17:45.223Z,34.97
2022-08-30T00:18:45.190Z,34.32
2022-08-30T00:19:45.178Z,36.42
2022-08-30T00:20:45.178Z,38.19
2022-08-30T00:21:45.167Z,38.51
2022-08-30T00:22:45.187Z,38.35
2022-08-30T00:23:45.140Z,38.19
2022-08-30T00:24:45.138Z,37.06
2022-08-30T00:25:45.131Z,34.97
2022-08-30T00:26:45.126Z,36.74
2022-08-30T00:27:45.137Z,35.13
2022-08-30T00:28:45.106Z,38.19
2022-08-30T00:29:45.102Z,37.54
2022-08-30T00:30:45.171Z,38.51
2022-08-30T00:31:45.082Z,37.71
2022-08-30T00:32:45.098Z,38.03
2022-08-30T00:33:45.066Z,40.12
2022-08-30T00:34:45.069Z,35.77
2022-08-30T00:35:45.053Z,40.77
2022-08-30T00:36:45.048Z,38.03
2022-08-30T00:37:45.067Z,37.06
2022-08-30T00:38:45.035Z,34.97
2022-08-30T00:39:45.025Z,35.61
2022-08-30T00:40:45.073Z,35.13
2022-08-30T00:41:45.017Z,35.29
2022-08-30T00:42:45.027Z,33.19
2022-08-30T00:43:45.995Z,34.48
2022-08-30T00:44:44.990Z,37.06
2022-08-30T00:45:44.981Z,39.48
2022-08-30T00:46:45.024Z,37.22
2022-08-30T00:47:44.994Z,35.93
2022-08-30T00:48:44.959Z,40.12
2022-08-30T00:49:44.953Z,37.06
2022-08-30T00:50:44.943Z,38.51
2022-08-30T00:51:44.943Z,38.83
2022-08-30T00:52:44.981Z,37.22
2022-08-30T00:53:44.920Z,40.77
2022-08-30T00:54:44.912Z,37.22
2022-08-30T00:55:44.906Z,36.25
2022-08-30T00:56:44.902Z,36.90
2022-08-30T00:57:44.924Z,38.83
2022-08-30T00:58:44.890Z,36.90
2022-08-30T00:59:44.877Z,36.58
2022-08-30T01:00:44.890Z,37.54
2022-08-30T01:01:44.906Z,35.61
2022-08-30T01:02:44.904Z,39.16
2022-08-30T01:03:44.856Z,37.71
2022-08-30T01:04:44.840Z,38.67
2022-08-30T01:05:44.828Z,44.96
2022-08-30T01:06:44.825Z,41.73
2022-08-30T01:07:44.850Z,42.22
2022-08-30T01:08:44.813Z,39.96
2022-08-30T01:09:44.802Z,38.99
2022-08-30T01:10:44.793Z,37.22
2022-08-30T01:11:44.789Z,43.51
2022-08-30T01:12:44.808Z,36.74
2022-08-30T01:13:44.767Z,36.90
2022-08-30T01:14:44.762Z,40.61
2022-08-30T01:15:44.805Z,40.77
2022-08-30T01:16:44.746Z,42.06
2022-08-30T01:17:44.778Z,41.41
2022-08-30T01:18:44.734Z,36.25
2022-08-30T01:19:44.722Z,37.54
2022-08-30T01:20:44.742Z,40.28
2022-08-30T01:21:44.731Z,37.87
2022-08-30T01:22:45.025Z,34.97
2022-08-30T01:23:44.682Z,37.22
2022-08-30T01:24:45.694Z,40.44
2022-08-30T01:25:44.684Z,40.93
2022-08-30T01:26:44.676Z,38.19
2022-08-30T01:27:44.696Z,39.32
2022-08-30T01:28:44.658Z,40.77
2022-08-30T01:29:44.648Z,35.13
2022-08-30T01:30:44.693Z,39.32
2022-08-30T01:31:44.639Z,42.06
2022-08-30T01:32:44.630Z,39.96
2022-08-30T01:33:44.650Z,36.42
2022-08-30T01:34:44.613Z,34.97
2022-08-30T01:35:44.604Z,33.84
2022-08-30T01:36:45.114Z,34.16
2022-08-30T01:37:44.620Z,34.16
2022-08-30T01:38:44.580Z,36.25
2022-08-30T01:39:44.575Z,35.45
2022-08-30T01:40:44.597Z,35.93
2022-08-30T01:41:44.557Z,41.41
2022-08-30T01:42:44.577Z,38.51
2022-08-30T01:43:44.544Z,35.45
2022-08-30T01:44:44.533Z,35.45
2022-08-30T01:45:44.577Z,38.99
2022-08-30T01:46:44.518Z,38.67
2022-08-30T01:47:44.538Z,38.03
2022-08-30T01:48:50.243Z,35.29
2022-08-30T01:49:45.497Z,35.45
2022-08-30T01:50:44.485Z,35.93
2022-08-30T01:51:44.479Z,35.29
2022-08-30T01:52:44.496Z,39.32
2022-08-30T01:53:44.463Z,38.19
2022-08-30T01:54:44.463Z,38.99
2022-08-30T01:55:44.450Z,38.19
2022-08-30T01:56:44.444Z,39.32
2022-08-30T01:57:44.465Z,40.77
2022-08-30T01:58:44.442Z,38.83
2022-08-30T02:00:16.935Z,37.87
2022-08-30T02:00:44.412Z,38.99
2022-08-30T02:01:44.439Z,39.32
2022-08-30T02:02:44.569Z,36.58
2022-08-30T02:03:44.486Z,39.48
2022-08-30T02:04:44.380Z,38.83
2022-08-30T02:05:44.380Z,41.09
2022-08-30T02:06:44.363Z,41.73
2022-08-30T02:07:44.382Z,42.38
2022-08-30T02:08:44.353Z,40.12
2022-08-30T02:09:44.357Z,38.67
2022-08-30T02:10:44.335Z,37.87
2022-08-30T02:11:44.327Z,37.06
2022-08-30T02:12:44.354Z,37.71
2022-08-30T02:13:44.313Z,34.48
2022-08-30T02:14:44.311Z,35.29
2022-08-30T02:15:44.309Z,34.97
2022-08-30T02:16:44.327Z,41.25
2022-08-30T02:17:44.285Z,38.67
2022-08-30T02:18:44.292Z,39.32
2022-08-30T02:19:44.263Z,37.06
2022-08-30T02:20:44.257Z,37.54
2022-08-30T02:21:44.246Z,39.96
2022-08-30T02:22:49.162Z,39.16
2022-08-30T02:23:45.258Z,45.28
2022-08-30T02:24:44.229Z,44.63
2022-08-30T02:25:44.225Z,44.15
2022-08-30T02:26:44.209Z,45.12
2022-08-30T02:27:44.206Z,46.25
2022-08-30T02:28:50.091Z,45.60
2022-08-30T02:29:45.181Z,44.31
2022-08-30T02:30:44.220Z,46.73
2022-08-30T02:31:44.171Z,39.32
2022-08-30T02:32:44.172Z,41.73
2022-08-30T02:33:44.178Z,40.28
2022-08-30T02:34:44.149Z,39.48
2022-08-30T02:35:44.138Z,42.06
2022-08-30T02:36:44.126Z,39.80
2022-08-30T02:37:44.144Z,39.48
2022-08-30T02:38:44.138Z,38.19
2022-08-30T02:39:44.106Z,36.25
2022-08-30T02:40:44.174Z,35.93
2022-08-30T02:41:44.089Z,38.03
2022-08-30T02:42:44.080Z,39.96
2022-08-30T02:43:44.126Z,39.96
2022-08-30T02:44:44.074Z,39.96
2022-08-30T02:45:44.129Z,42.86
2022-08-30T02:46:44.053Z,45.12
2022-08-30T02:47:46.981Z,41.57
2022-08-30T02:48:45.074Z,45.60
2022-08-30T02:49:44.030Z,38.99
2022-08-30T02:50:44.026Z,42.22
2022-08-30T02:51:44.017Z,39.64
2022-08-30T02:52:48.108Z,44.63
2022-08-30T02:53:44.047Z,44.31
2022-08-30T02:54:43.998Z,44.96
2022-08-30T02:55:43.989Z,43.99
2022-08-30T02:56:44.006Z,41.09
2022-08-30T02:57:44.004Z,41.89
2022-08-30T02:58:44.013Z,43.34
2022-08-30T02:59:43.963Z,42.22
2022-08-30T03:00:44.029Z,40.12
2022-08-30T03:01:44.001Z,39.32
2022-08-30T03:02:43.931Z,43.99
2022-08-30T03:03:43.986Z,42.86
2022-08-30T03:04:43.912Z,45.76
2022-08-30T03:05:43.908Z,43.99
2022-08-30T03:06:43.906Z,41.57
2022-08-30T03:07:43.894Z,44.96
2022-08-30T03:08:43.912Z,46.73
2022-08-30T03:09:43.883Z,43.18
2022-08-30T03:10:43.867Z,42.54
2022-08-30T03:11:43.867Z,42.38
2022-08-30T03:12:43.864Z,46.57
2022-08-30T03:13:43.881Z,41.25
2022-08-30T03:14:43.843Z,45.92
2022-08-30T03:15:43.842Z,43.51
2022-08-30T03:16:43.890Z,43.51
2022-08-30T03:17:43.820Z,40.61
2022-08-30T03:18:43.852Z,47.21
2022-08-30T03:19:43.813Z,48.50
2022-08-30T03:20:44.002Z,46.25
2022-08-30T03:21:43.795Z,44.15
2022-08-30T03:22:43.790Z,46.08
2022-08-30T03:23:43.801Z,47.37
2022-08-30T03:24:43.775Z,44.47
2022-08-30T03:25:43.763Z,45.44
2022-08-30T03:26:46.442Z,52.53
2022-08-30T03:27:44.748Z,48.82
2022-08-30T03:28:43.772Z,42.54
2022-08-30T03:29:43.736Z,43.34
2022-08-30T03:30:43.734Z,42.70
2022-08-30T03:31:53.122Z,51.40
2022-08-30T03:32:44.718Z,44.96
2022-08-30T03:33:43.730Z,48.98
2022-08-30T03:34:43.699Z,47.05
2022-08-30T03:35:43.690Z,48.82
2022-08-30T03:36:43.687Z,45.92
2022-08-30T03:37:43.679Z,47.37
2022-08-30T03:38:43.698Z,47.70
2022-08-30T03:39:43.661Z,47.37
2022-08-30T03:40:43.714Z,47.53
2022-08-30T03:41:43.651Z,48.02
2022-08-30T03:42:43.638Z,48.66
2022-08-30T03:43:43.629Z,45.76
2022-08-30T03:44:43.651Z,47.86
2022-08-30T03:45:43.689Z,47.05
2022-08-30T03:46:43.606Z,47.53
2022-08-30T03:47:43.596Z,44.15
2022-08-30T03:48:43.600Z,45.92
2022-08-30T03:49:43.612Z,52.69
2022-08-30T03:50:43.581Z,41.89
2022-08-30T03:51:43.573Z,47.21
2022-08-30T03:52:43.569Z,48.18
2022-08-30T03:53:43.558Z,43.99
2022-08-30T03:54:43.588Z,44.63
2022-08-30T03:55:43.546Z,48.82
2022-08-30T03:56:43.535Z,44.31
2022-08-30T03:57:43.862Z,44.96
2022-08-30T03:58:43.522Z,49.63
2022-08-30T03:59:43.540Z,46.57
2022-08-30T04:00:43.567Z,47.05
2022-08-30T04:01:43.656Z,43.83
2022-08-30T04:02:43.539Z,49.15
2022-08-30T04:03:43.482Z,42.86
2022-08-30T04:04:43.500Z,43.18
2022-08-30T04:05:43.476Z,49.31
2022-08-30T04:06:43.456Z,48.82
2022-08-30T04:07:43.458Z,50.27
2022-08-30T04:08:43.460Z,45.92
2022-08-30T04:09:43.462Z,43.99
2022-08-30T04:10:43.433Z,46.73
2022-08-30T04:11:43.423Z,45.28
2022-08-30T04:12:48.919Z,52.21
2022-08-30T04:13:45.406Z,50.11
2022-08-30T04:14:43.433Z,48.66
2022-08-30T04:15:43.388Z,52.53
2022-08-30T04:16:43.462Z,50.43
2022-08-30T04:17:44.386Z,55.75
2022-08-30T04:18:43.372Z,50.43
2022-08-30T04:19:43.382Z,51.88
2022-08-30T04:20:43.364Z,51.24
2022-08-30T04:21:43.454Z,49.63
2022-08-30T04:22:43.336Z,49.79
2022-08-30T04:23:43.338Z,50.92
2022-08-30T04:24:43.349Z,45.28
2022-08-30T04:25:43.321Z,49.95
2022-08-30T04:26:43.310Z,48.82
2022-08-30T04:27:43.302Z,49.15
2022-08-30T04:28:43.291Z,46.73
2022-08-30T04:29:43.303Z,48.98
2022-08-30T04:30:43.267Z,48.02
2022-08-30T04:31:43.324Z,49.31
2022-08-30T04:32:43.242Z,47.05
2022-08-30T04:33:44.246Z,53.01
2022-08-30T04:34:43.261Z,48.82
2022-08-30T04:35:43.228Z,51.08
2022-08-30T04:36:48.233Z,50.27
2022-08-30T04:37:44.205Z,46.57
2022-08-30T04:38:43.228Z,47.70
2022-08-30T04:39:43.189Z,54.46
2022-08-30T04:40:43.238Z,51.24
2022-08-30T04:41:43.187Z,51.72
2022-08-30T04:42:43.168Z,51.88
2022-08-30T04:43:43.191Z,49.63
2022-08-30T04:44:43.151Z,48.18
2022-08-30T04:45:43.225Z,50.11
2022-08-30T04:46:44.734Z,51.24
2022-08-30T04:47:43.128Z,49.47
2022-08-30T04:48:43.152Z,47.86
2022-08-30T04:49:43.115Z,48.82
2022-08-30T04:50:43.116Z,48.82
2022-08-30T04:51:43.104Z,55.59
2022-08-30T04:52:43.097Z,49.31
2022-08-30T04:53:43.083Z,49.15
2022-08-30T04:54:43.103Z,53.50
2022-08-30T04:55:43.075Z,47.53
2022-08-30T04:56:43.065Z,49.47
2022-08-30T04:57:43.051Z,46.57
2022-08-30T04:58:43.043Z,51.72
2022-08-30T04:59:43.063Z,56.88
2022-08-30T05:00:43.062Z,55.11
2022-08-30T05:01:45.203Z,50.92
2022-08-30T05:02:43.076Z,51.72
2022-08-30T05:03:43.004Z,53.01
2022-08-30T05:04:43.023Z,52.21
2022-08-30T05:05:42.987Z,44.79
2022-08-30T05:06:42.984Z,51.08
2022-08-30T05:07:42.976Z,54.46
2022-08-30T05:08:46.609Z,49.79
2022-08-30T05:09:42.974Z,55.11
2022-08-30T05:10:43.951Z,52.53
2022-08-30T05:11:42.947Z,55.11
2022-08-30T05:12:42.934Z,46.08
2022-08-30T05:13:42.931Z,52.37
2022-08-30T05:14:42.955Z,54.30
2022-08-30T05:15:42.909Z,50.76
2022-08-30T05:16:42.941Z,43.34
2022-08-30T05:17:42.897Z,49.79
2022-08-30T05:18:42.888Z,50.76
2022-08-30T05:19:42.909Z,45.60
2022-08-30T05:20:42.871Z,45.92
2022-08-30T05:21:42.862Z,46.73
2022-08-30T05:22:42.859Z,44.96
2022-08-30T05:23:42.847Z,53.01
2022-08-30T05:24:42.880Z,49.63
2022-08-30T05:25:42.833Z,47.86
2022-08-30T05:26:42.882Z,47.05
2022-08-30T05:27:42.820Z,47.86
2022-08-30T05:28:42.812Z,51.56
2022-08-30T05:29:42.833Z,48.18
2022-08-30T05:30:42.792Z,45.60
2022-08-30T05:31:42.826Z,53.98
2022-08-30T05:32:42.794Z,47.21
2022-08-30T05:33:42.784Z,49.15
2022-08-30T05:34:42.794Z,47.37
2022-08-30T05:35:42.753Z,49.15
2022-08-30T05:36:42.744Z,53.17
2022-08-30T05:37:42.742Z,50.92
2022-08-30T05:38:42.732Z,48.34
2022-08-30T05:39:45.054Z,44.63
2022-08-30T05:40:43.796Z,50.43
2022-08-30T05:41:42.712Z,53.50
2022-08-30T05:42:42.702Z,49.31
2022-08-30T05:43:42.693Z,50.27
2022-08-30T05:44:44.342Z,50.92
2022-08-30T05:45:42.689Z,48.82
2022-08-30T05:46:42.675Z,48.50
2022-08-30T05:47:42.661Z,50.27
2022-08-30T05:48:42.658Z,46.89
2022-08-30T05:49:42.670Z,53.01
2022-08-30T05:50:42.644Z,44.31
2022-08-30T05:51:43.285Z,42.54
2022-08-30T05:52:42.629Z,42.70
2022-08-30T05:53:42.616Z,51.40
2022-08-30T05:54:42.641Z,51.88
2022-08-30T05:55:42.604Z,44.31
2022-08-30T05:56:42.625Z,50.27
2022-08-30T05:57:42.607Z,47.21
2022-08-30T05:58:42.582Z,44.63
2022-08-30T05:59:42.606Z,43.51
2022-08-30T06:00:42.571Z,43.67
2022-08-30T06:01:42.687Z,51.08
2022-08-30T06:02:42.600Z,53.66
2022-08-30T06:03:42.548Z,45.28
2022-08-30T06:04:42.561Z,49.31
2022-08-30T06:05:42.571Z,43.51
2022-08-30T06:06:42.520Z,51.24
2022-08-30T06:07:42.511Z,47.86
2022-08-30T06:08:42.507Z,50.11
2022-08-30T06:09:42.526Z,48.98
2022-08-30T06:10:42.493Z,48.98
2022-08-30T06:11:42.482Z,47.86
2022-08-30T06:12:42.469Z,48.82
2022-08-30T06:13:42.472Z,52.53
2022-08-30T06:14:42.492Z,43.83
2022-08-30T06:15:42.477Z,43.51
2022-08-30T06:16:42.444Z,42.54
2022-08-30T06:17:42.440Z,43.51
2022-08-30T06:18:42.430Z,47.21
2022-08-30T06:19:42.418Z,51.24
2022-08-30T06:20:42.441Z,53.66
2022-08-30T06:21:42.402Z,44.63
2022-08-30T06:22:42.396Z,50.27
2022-08-30T06:23:42.391Z,45.92
2022-08-30T06:24:57.089Z,50.92
2022-08-30T06:25:44.399Z,49.79
2022-08-30T06:26:42.364Z,48.02
2022-08-30T06:27:42.364Z,47.86
2022-08-30T06:28:42.364Z,47.86
2022-08-30T06:29:42.343Z,47.70
2022-08-30T06:30:42.362Z,45.60
2022-08-30T06:31:42.359Z,48.34
2022-08-30T06:32:42.323Z,49.31
2022-08-30T06:33:42.310Z,49.47
2022-08-30T06:34:42.327Z,46.41
2022-08-30T06:35:58.260Z,51.56
2022-08-30T06:36:44.294Z,52.85
2022-08-30T06:37:42.284Z,50.43
2022-08-30T06:38:42.280Z,51.72
2022-08-30T06:39:42.272Z,50.76
2022-08-30T06:40:42.343Z,51.08
2022-08-30T06:41:42.262Z,48.66
2022-08-30T06:42:42.246Z,49.79
2022-08-30T06:43:46.762Z,53.98
2022-08-30T06:44:45.702Z,47.70
2022-08-30T06:45:42.251Z,48.66
2022-08-30T06:46:42.321Z,47.05
2022-08-30T06:47:42.202Z,49.79
2022-08-30T06:48:43.096Z,42.54
2022-08-30T06:49:42.182Z,47.53
2022-08-30T06:50:43.205Z,49.79
2022-08-30T06:51:42.169Z,53.33
2022-08-30T06:52:42.164Z,51.40
2022-08-30T06:53:42.192Z,48.34
2022-08-30T06:54:42.155Z,42.54
2022-08-30T06:55:42.163Z,43.99
2022-08-30T06:56:57.712Z,52.21
2022-08-30T06:57:44.125Z,46.25
2022-08-30T06:58:42.129Z,49.79
2022-08-30T06:59:42.105Z,52.37
2022-08-30T07:00:42.143Z,51.24
2022-08-30T07:01:42.162Z,46.89
2022-08-30T07:02:42.141Z,45.44
2022-08-30T07:03:42.079Z,42.06
2022-08-30T07:04:42.078Z,42.38
2022-08-30T07:05:42.089Z,44.63
2022-08-30T07:06:42.057Z,46.73
2022-08-30T07:07:42.051Z,48.50
2022-08-30T07:08:42.036Z,46.73
2022-08-30T07:09:42.031Z,49.63
2022-08-30T07:10:42.046Z,52.85
2022-08-30T07:11:42.021Z,49.47
2022-08-30T07:12:42.004Z,45.76
2022-08-30T07:13:42.002Z,54.14
2022-08-30T07:14:41.996Z,45.60
2022-08-30T07:15:42.072Z,44.15
2022-08-30T07:16:41.976Z,44.31
2022-08-30T07:17:41.966Z,43.18
2022-08-30T07:18:41.960Z,45.44
2022-08-30T07:19:41.946Z,50.11
2022-08-30T07:20:41.990Z,41.25
2022-08-30T07:21:41.995Z,50.92
2022-08-30T07:22:41.925Z,56.24
2022-08-30T07:23:41.925Z,46.08
2022-08-30T07:24:41.913Z,43.83
2022-08-30T07:25:41.939Z,44.15
2022-08-30T07:26:41.893Z,44.79
2022-08-30T07:27:41.888Z,47.53
2022-08-30T07:28:41.882Z,47.70
2022-08-30T07:29:41.855Z,44.15
2022-08-30T07:30:42.893Z,49.15
2022-08-30T07:31:41.860Z,47.86
2022-08-30T07:32:41.848Z,52.53
2022-08-30T07:33:41.850Z,43.51
2022-08-30T07:34:41.831Z,50.43
2022-08-30T07:35:41.896Z,50.43
2022-08-30T07:36:41.871Z,47.70
2022-08-30T07:37:41.810Z,45.92
2022-08-30T07:38:41.800Z,49.79
2022-08-30T07:39:45.843Z,45.44
2022-08-30T07:40:43.931Z,52.85
2022-08-30T07:41:41.780Z,46.57
2022-08-30T07:42:41.779Z,46.73
2022-08-30T07:43:41.764Z,52.85
2022-08-30T07:44:41.756Z,49.15
2022-08-30T07:45:41.765Z,48.02
2022-08-30T07:46:41.820Z,44.79
2022-08-30T07:47:41.744Z,45.92
2022-08-30T07:48:41.733Z,48.34
2022-08-30T07:49:41.756Z,39.32
2022-08-30T07:50:41.746Z,43.18
2022-08-30T07:51:41.714Z,50.43
2022-08-30T07:52:41.716Z,49.31
2022-08-30T07:53:41.692Z,45.60
2022-08-30T07:54:41.685Z,50.27
2022-08-30T07:55:41.680Z,49.31
2022-08-30T07:56:41.696Z,49.31
2022-08-30T07:57:41.670Z,48.34
2022-08-30T07:58:41.660Z,44.47
2022-08-30T07:59:41.663Z,46.41
2022-08-30T08:00:41.642Z,51.56
2022-08-30T08:01:41.727Z,46.89
2022-08-30T08:02:41.669Z,40.61
2022-08-30T08:03:41.619Z,47.05
2022-08-30T08:04:41.648Z,45.12
2022-08-30T08:05:41.612Z,40.61
2022-08-30T08:06:41.621Z,41.41
2022-08-30T08:07:41.586Z,43.02
2022-08-30T08:08:41.594Z,47.21
2022-08-30T08:09:41.587Z,49.47
2022-08-30T08:10:41.564Z,50.92
2022-08-30T08:11:41.573Z,49.63
2022-08-30T08:12:41.541Z,47.53
2022-08-30T08:13:48.972Z,43.51
2022-08-30T08:14:42.540Z,45.28
2022-08-30T08:15:41.553Z,44.47
2022-08-30T08:16:41.543Z,42.54
2022-08-30T08:17:41.503Z,42.86
2022-08-30T08:18:41.507Z,55.43
2022-08-30T08:19:41.499Z,49.31
2022-08-30T08:20:41.483Z,48.66
2022-08-30T08:21:41.503Z,42.06
2022-08-30T08:22:41.474Z,47.05
2022-08-30T08:23:41.463Z,49.31
2022-08-30T08:24:41.448Z,47.21
2022-08-30T08:25:41.434Z,45.12
2022-08-30T08:26:45.262Z,42.86
2022-08-30T08:27:41.438Z,40.93
2022-08-30T08:28:41.441Z,41.73
2022-08-30T08:29:41.431Z,51.56
2022-08-30T08:30:45.107Z,49.31
2022-08-30T08:31:43.454Z,42.70
2022-08-30T08:32:41.750Z,39.32
2022-08-30T08:33:41.387Z,48.98
2022-08-30T08:34:41.390Z,51.88
2022-08-30T08:35:41.398Z,49.31
2022-08-30T08:36:41.403Z,47.70
2022-08-30T08:37:41.358Z,46.57
2022-08-30T08:38:41.335Z,47.70
2022-08-30T08:39:41.343Z,47.05
2022-08-30T08:40:41.369Z,44.96
2022-08-30T08:41:41.356Z,53.33
2022-08-30T08:42:41.345Z,53.82
2022-08-30T08:43:41.308Z,48.18
2022-08-30T08:44:41.339Z,47.37
2022-08-30T08:45:41.288Z,47.86
2022-08-30T08:46:41.388Z,47.70
2022-08-30T08:47:41.277Z,49.47
2022-08-30T08:48:59.103Z,43.99
2022-08-30T08:49:43.263Z,43.83
2022-08-30T08:50:41.305Z,46.57
2022-08-30T08:51:41.272Z,43.51
2022-08-30T08:52:41.237Z,51.56
2022-08-30T08:53:48.372Z,49.15
2022-08-30T08:54:43.241Z,49.79
2022-08-30T08:55:41.253Z,44.63
2022-08-30T08:56:41.285Z,43.67
2022-08-30T08:57:41.212Z,49.95
2022-08-30T08:58:41.250Z,46.89
2022-08-30T08:59:41.193Z,47.21
2022-08-30T09:00:41.219Z,51.56
2022-08-30T09:01:41.265Z,43.67
2022-08-30T09:02:41.163Z,44.47
2022-08-30T09:03:41.164Z,52.53
2022-08-30T09:04:41.168Z,47.70
2022-08-30T09:05:41.141Z,45.44
2022-08-30T09:06:45.377Z,48.34
2022-08-30T09:07:41.123Z,49.15
2022-08-30T09:08:41.161Z,42.70
2022-08-30T09:09:41.144Z,48.66
2022-08-30T09:10:50.500Z,46.41
2022-08-30T09:11:59.134Z,50.92
2022-08-30T09:12:42.101Z,46.25
2022-08-30T09:13:41.079Z,50.43
2022-08-30T09:14:45.969Z,49.31
2022-08-30T09:15:42.093Z,51.40
2022-08-30T09:16:41.112Z,50.76
2022-08-30T09:17:41.061Z,48.02
2022-08-30T09:18:41.061Z,52.05
2022-08-30T09:19:41.035Z,47.70
2022-08-30T09:20:41.023Z,51.40
2022-08-30T09:21:41.433Z,50.76
2022-08-30T09:22:40.993Z,39.32
2022-08-30T09:23:41.010Z,50.76
2022-08-30T09:24:40.984Z,45.76
2022-08-30T09:25:41.903Z,47.86
2022-08-30T09:26:42.002Z,49.31
2022-08-30T09:27:40.957Z,48.34
2022-08-30T09:28:40.944Z,45.60
2022-08-30T09:29:40.961Z,55.11
2022-08-30T09:30:41.046Z,47.70
2022-08-30T09:31:40.957Z,44.63
2022-08-30T09:32:40.910Z,52.21
2022-08-30T09:33:40.921Z,49.47
2022-08-30T09:34:40.903Z,51.56
2022-08-30T09:35:40.887Z,45.92
2022-08-30T09:36:40.929Z,49.31
2022-08-30T09:37:40.885Z,50.27
2022-08-30T09:38:40.863Z,43.51
2022-08-30T09:39:40.858Z,48.66
2022-08-30T09:40:40.896Z,52.05
2022-08-30T09:41:41.868Z,44.63
2022-08-30T09:42:40.836Z,45.92
2022-08-30T09:43:40.837Z,48.18
2022-08-30T09:44:40.822Z,37.54
2022-08-30T09:45:40.812Z,49.63
2022-08-30T09:46:40.896Z,46.08
2022-08-30T09:47:40.819Z,51.72
2022-08-30T09:48:40.798Z,49.47
2022-08-30T09:49:40.785Z,42.06
2022-08-30T09:50:42.281Z,46.57
2022-08-30T09:51:40.825Z,49.63
2022-08-30T09:52:40.948Z,48.02
2022-08-30T09:53:50.949Z,48.98
2022-08-30T09:54:42.744Z,47.05
2022-08-30T09:55:40.748Z,46.73
2022-08-30T09:56:40.726Z,46.08
2022-08-30T09:57:40.756Z,47.21
2022-08-30T09:58:40.718Z,45.44
2022-08-30T09:59:40.716Z,42.54
2022-08-30T10:00:40.694Z,44.63
2022-08-30T10:01:40.746Z,45.76
2022-08-30T10:02:40.706Z,50.92
2022-08-30T10:03:41.204Z,48.82
2022-08-30T10:04:40.671Z,49.95
2022-08-30T10:05:40.673Z,50.27
2022-08-30T10:06:42.090Z,49.63
2022-08-30T10:07:40.645Z,42.06
2022-08-30T10:08:40.682Z,44.79
2022-08-30T10:09:40.659Z,52.69
2022-08-30T10:10:45.254Z,45.60
2022-08-30T10:11:42.649Z,46.41
2022-08-30T10:12:40.620Z,43.99
2022-08-30T10:13:40.718Z,50.27
2022-08-30T10:14:40.591Z,48.02
2022-08-30T10:15:40.593Z,50.43
2022-08-30T10:16:40.620Z,48.66
2022-08-30T10:17:40.571Z,48.82
2022-08-30T10:18:40.558Z,47.05
2022-08-30T10:19:40.549Z,48.02
2022-08-30T10:20:40.559Z,43.83
2022-08-30T10:21:40.577Z,42.22
2022-08-30T10:22:40.530Z,44.63
2022-08-30T10:23:40.520Z,51.24
2022-08-30T10:24:40.522Z,50.43
2022-08-30T10:25:40.566Z,43.34
2022-08-30T10:26:40.536Z,43.83
2022-08-30T10:27:40.480Z,51.72
2022-08-30T10:28:41.482Z,46.89
2022-08-30T10:29:42.506Z,43.99
2022-08-30T10:30:41.464Z,56.72
2022-08-30T10:31:40.457Z,48.98
2022-08-30T10:32:40.481Z,48.98
2022-08-30T10:33:40.458Z,46.73
2022-08-30T10:34:40.446Z,42.38
2022-08-30T10:35:40.443Z,43.83
2022-08-30T10:36:40.449Z,49.31
2022-08-30T10:37:40.423Z,50.27
2022-08-30T10:38:40.409Z,46.08
2022-08-30T10:39:40.400Z,46.08
2022-08-30T10:40:40.457Z,42.38
2022-08-30T10:41:40.410Z,48.18
2022-08-30T10:42:40.382Z,46.89
2022-08-30T10:43:40.408Z,41.89
2022-08-30T10:44:41.313Z,39.64
2022-08-30T10:45:40.362Z,46.89
2022-08-30T10:46:40.377Z,51.08
2022-08-30T10:47:40.340Z,51.40
2022-08-30T10:48:40.362Z,47.05
2022-08-30T10:49:40.622Z,49.47
2022-08-30T10:50:41.444Z,45.12
2022-08-30T10:51:40.345Z,48.34
2022-08-30T10:52:40.304Z,44.31
2022-08-30T10:53:40.299Z,38.67
2022-08-30T10:54:40.289Z,51.08
2022-08-30T10:55:40.301Z,49.63
2022-08-30T10:56:40.310Z,48.98
2022-08-30T10:57:41.877Z,47.86
2022-08-30T10:58:40.265Z,43.51
2022-08-30T10:59:40.251Z,43.83
2022-08-30T11:00:40.251Z,49.63
2022-08-30T11:01:46.647Z,46.08
2022-08-30T11:02:41.293Z,43.02
2022-08-30T11:03:40.249Z,42.54
2022-08-30T11:04:40.244Z,50.76
2022-08-30T11:05:42.080Z,47.05
2022-08-30T11:06:40.195Z,47.21
2022-08-30T11:07:40.192Z,48.66
2022-08-30T11:08:40.187Z,51.40
2022-08-30T11:09:40.205Z,44.79
2022-08-30T11:10:40.161Z,47.21
2022-08-30T11:11:40.736Z,46.25
2022-08-30T11:12:40.158Z,44.15
2022-08-30T11:13:40.141Z,46.89
2022-08-30T11:14:40.170Z,48.98
2022-08-30T11:15:40.151Z,44.15
2022-08-30T11:16:40.131Z,41.09
2022-08-30T11:17:40.120Z,49.95
2022-08-30T11:18:40.105Z,50.92
2022-08-30T11:19:40.852Z,45.60
2022-08-30T11:20:40.094Z,41.41
2022-08-30T11:21:40.087Z,50.11
2022-08-30T11:22:40.093Z,42.38
2022-08-30T11:23:40.086Z,48.34
2022-08-30T11:24:40.107Z,47.86
2022-08-30T11:25:40.069Z,52.21
2022-08-30T11:26:40.054Z,49.63
2022-08-30T11:27:41.045Z,48.50
2022-08-30T11:28:40.036Z,42.86
2022-08-30T11:29:40.058Z,44.15
2022-08-30T11:30:40.037Z,41.25
2022-08-30T11:31:40.017Z,42.54
2022-08-30T11:32:40.014Z,44.63
2022-08-30T11:33:40.007Z,47.37
2022-08-30T11:34:40.025Z,42.86
2022-08-30T11:35:40.341Z,45.12
2022-08-30T11:36:46.326Z,41.73
2022-08-30T11:37:40.973Z,39.64
2022-08-30T11:38:39.960Z,44.47
2022-08-30T11:39:39.981Z,42.06
2022-08-30T11:40:39.958Z,53.98
2022-08-30T11:41:42.621Z,44.47
2022-08-30T11:43:39.951Z,42.54
2022-08-30T11:44:39.938Z,44.15
2022-08-30T11:45:39.928Z,50.92
2022-08-30T11:46:39.910Z,37.22
2022-08-30T11:47:39.897Z,38.51
2022-08-30T11:48:39.885Z,45.76
2022-08-30T11:49:40.906Z,50.27
2022-08-30T11:50:39.876Z,46.08
2022-08-30T11:51:39.867Z,47.37
2022-08-30T11:52:39.860Z,47.37
2022-08-30T11:53:39.846Z,47.21
2022-08-30T11:54:39.874Z,46.89
2022-08-30T11:55:39.828Z,44.15
2022-08-30T11:56:39.828Z,58.17
2022-08-30T11:57:39.834Z,47.53
2022-08-30T11:58:39.816Z,44.96
2022-08-30T11:59:39.796Z,49.95
2022-08-30T12:00:40.706Z,48.18
2022-08-30T12:01:42.084Z,51.72
2022-08-30T12:02:41.955Z,44.15
2022-08-30T12:03:39.836Z,42.38
2022-08-30T12:04:39.773Z,35.77
2022-08-30T12:05:39.821Z,45.76
2022-08-30T12:06:39.818Z,39.32
2022-08-30T12:07:39.740Z,49.31
2022-08-30T12:08:39.733Z,45.44
2022-08-30T12:09:40.738Z,44.15
2022-08-30T12:10:39.797Z,42.70
2022-08-30T12:11:39.714Z,52.21
2022-08-30T12:12:39.706Z,46.73
2022-08-30T12:13:39.703Z,36.09
2022-08-30T12:14:41.151Z,45.12
2022-08-30T12:15:39.711Z,45.60
2022-08-30T12:16:39.698Z,48.02
2022-08-30T12:17:39.668Z,49.63
2022-08-30T12:18:40.723Z,47.37
2022-08-30T12:19:41.309Z,49.95
2022-08-30T12:20:39.674Z,49.79
2022-08-30T12:21:44.779Z,54.14
2022-08-30T12:22:40.628Z,51.24
2022-08-30T12:23:44.543Z,52.37
2022-08-30T12:24:40.660Z,44.79
2022-08-30T12:25:39.659Z,52.05
2022-08-30T12:26:39.598Z,51.24
2022-08-30T12:27:39.595Z,52.69
2022-08-30T12:28:42.091Z,50.92
2022-08-30T12:29:39.588Z,50.43
2022-08-30T12:30:39.616Z,50.11
2022-08-30T12:31:39.586Z,50.27
2022-08-30T12:32:39.584Z,52.53
2022-08-30T12:33:41.342Z,51.56
2022-08-30T12:34:39.537Z,51.40
2022-08-30T12:35:39.576Z,48.02
2022-08-30T12:36:39.524Z,49.31
2022-08-30T12:37:42.149Z,50.27
2022-08-30T12:38:39.513Z,53.01
2022-08-30T12:39:39.497Z,48.66
2022-08-30T12:40:39.571Z,42.38
2022-08-30T12:41:43.583Z,44.63
2022-08-30T12:42:39.474Z,45.28
2022-08-30T12:43:41.481Z,46.89
2022-08-30T12:44:39.461Z,48.82
2022-08-30T12:45:39.577Z,49.79
2022-08-30T12:46:39.441Z,47.70
2022-08-30T12:47:39.440Z,50.76
2022-08-30T12:48:39.462Z,49.95
2022-08-30T12:49:39.418Z,48.98
2022-08-30T12:50:39.462Z,50.43
2022-08-30T12:51:39.415Z,43.18
2022-08-30T12:52:39.401Z,42.54
2022-08-30T12:53:39.398Z,49.31